Time;durP1;ratioP1;P1;durP2;ratioP2;P2;SDS_P1;SDS_P2;PMS_P1;PMS_P2;Temp;Humidity;BMP_temperature;BMP_pressure;BME280_temperature;BME280_humidity;BME280_pressure;Samples;Min_cycle;Max_cycle;Signal;HPM_P1;HPM_P2
2023/06/11 00:00:08;;;;;;;6.10;3.53;;;26.00;77.70;;;;;;5036748;28;20041;-75
2023/06/11 00:02:34;;;;;;;6.97;3.53;;;26.10;77.40;;;;;;5045797;28;20098;-65
2023/06/11 00:05:03;;;;;;;7.43;3.85;;;25.90;77.60;;;;;;5052815;28;20549;-71
2023/06/11 00:07:30;;;;;;;9.15;4.13;;;25.80;77.70;;;;;;5052866;28;20048;-62
2023/06/11 00:09:56;;;;;;;6.93;3.67;;;25.80;77.50;;;;;;5054020;28;20399;-71
2023/06/11 00:12:21;;;;;;;7.68;4.32;;;26.10;77.70;;;;;;5051922;28;20052;-72
2023/06/11 00:14:47;;;;;;;6.18;3.95;;;26.20;77.80;;;;;;5043020;28;20132;-70
2023/06/11 00:17:13;;;;;;;7.70;3.88;;;26.00;77.60;;;;;;5035060;28;20124;-69
2023/06/11 00:19:40;;;;;;;7.70;4.30;;;26.00;77.60;;;;;;5045232;28;20255;-65
2023/06/11 00:22:08;;;;;;;7.57;4.20;;;26.00;77.70;;;;;;5037369;28;20105;-68
2023/06/11 00:24:34;;;;;;;8.15;4.25;;;26.00;77.70;;;;;;5038558;28;20048;-65
2023/06/11 00:27:01;;;;;;;7.95;3.90;;;25.90;77.50;;;;;;5042005;28;20042;-71
2023/06/11 00:29:28;;;;;;;5.95;3.80;;;25.90;77.70;;;;;;5033756;28;20103;-63
2023/06/11 00:31:54;;;;;;;7.03;4.00;;;26.00;77.70;;;;;;5041905;28;20482;-74
2023/06/11 00:34:20;;;;;;;8.07;4.28;;;26.10;77.60;;;;;;5041268;28;21949;-75
2023/06/11 00:36:45;;;;;;;7.82;4.07;;;26.10;77.60;;;;;;5048813;28;20041;-62
2023/06/11 00:39:12;;;;;;;6.57;4.20;;;26.00;77.40;;;;;;5052069;28;20045;-66
2023/06/11 00:41:39;;;;;;;6.57;4.20;;;26.20;77.60;;;;;;5051559;28;20095;-66
2023/06/11 00:44:06;;;;;;;6.47;4.05;;;25.80;77.70;;;;;;5051075;28;20080;-62
2023/06/11 00:46:32;;;;;;;7.00;3.90;;;25.70;77.40;;;;;;5050703;28;20040;-62
2023/06/11 00:48:58;;;;;;;6.68;4.07;;;25.90;77.60;;;;;;5041412;28;20049;-64
2023/06/11 00:51:24;;;;;;;8.10;4.22;;;25.80;77.50;;;;;;5032438;28;20545;-66
2023/06/11 00:53:54;;;;;;;8.68;4.20;;;26.00;77.60;;;;;;5033102;28;20061;-71
2023/06/11 00:56:20;;;;;;;6.10;4.30;;;26.00;76.70;;;;;;5049342;28;20045;-70
2023/06/11 00:58:47;;;;;;;6.45;3.70;;;26.00;77.50;;;;;;5052684;28;20129;-70
2023/06/11 01:01:15;;;;;;;8.52;4.05;;;25.70;77.60;;;;;;5053045;28;20459;-70
2023/06/11 01:03:41;;;;;;;7.40;4.47;;;25.80;77.70;;;;;;5053013;28;20052;-72
2023/06/11 01:06:11;;;;;;;7.72;4.50;;;25.90;77.40;;;;;;5037803;28;20395;-71
2023/06/11 01:08:40;;;;;;;6.10;3.72;;;25.80;77.80;;;;;;5044613;28;20064;-71
2023/06/11 01:11:17;;;;;;;7.43;4.47;;;25.80;77.80;;;;;;5032751;28;20114;-71
2023/06/11 01:13:43;;;;;;;6.38;4.30;;;25.70;76.30;;;;;;5032206;28;20166;-70
2023/06/11 01:16:14;;;;;;;7.78;4.78;;;26.00;77.70;;;;;;5050845;28;20127;-66
2023/06/11 01:18:53;;;;;;;8.18;4.20;;;25.80;78.00;;;;;;5052167;28;20659;-61
2023/06/11 01:21:20;;;;;;;10.00;4.25;;;25.80;76.50;;;;;;5051325;28;20041;-69
2023/06/11 01:24:03;;;;;;;7.07;4.15;;;25.60;77.70;;;;;;5044558;28;20045;-64
2023/06/11 01:26:37;;;;;;;6.18;4.00;;;25.80;78.20;;;;;;5049358;28;20045;-63
2023/06/11 01:29:03;;;;;;;9.30;4.45;;;25.60;76.40;;;;;;5052412;28;20521;-61
2023/06/11 01:31:29;;;;;;;6.18;4.10;;;25.80;77.60;;;;;;5051519;28;20037;-62
2023/06/11 01:33:56;;;;;;;7.30;4.55;;;25.70;77.70;;;;;;5034532;28;20053;-65
2023/06/11 01:36:24;;;;;;;8.95;4.53;;;25.60;77.80;;;;;;5031005;28;20123;-65
2023/06/11 01:38:51;;;;;;;7.57;4.30;;;25.70;77.70;;;;;;5039592;28;20057;-64
2023/06/11 01:41:16;;;;;;;7.95;4.68;;;25.80;77.60;;;;;;5040016;28;20052;-62
2023/06/11 01:43:42;;;;;;;6.22;4.30;;;25.70;77.60;;;;;;5054690;28;20045;-66
2023/06/11 01:46:08;;;;;;;7.55;4.25;;;25.50;77.40;;;;;;5047361;28;20466;-62
2023/06/11 01:48:34;;;;;;;5.88;4.43;;;25.50;77.40;;;;;;5058632;28;20055;-61
2023/06/11 01:51:00;;;;;;;6.65;4.20;;;25.80;77.70;;;;;;5049266;28;20041;-64
2023/06/11 01:53:25;;;;;;;7.55;4.30;;;25.50;77.60;;;;;;5047325;28;20112;-60
2023/06/11 01:55:51;;;;;;;6.47;4.40;;;25.60;77.50;;;;;;5041353;28;20044;-65
2023/06/11 01:58:17;;;;;;;7.15;4.22;;;25.90;77.70;;;;;;5054207;28;20095;-65
2023/06/11 02:00:43;;;;;;;6.75;4.32;;;25.60;77.60;;;;;;5047673;28;20048;-66
2023/06/11 02:03:09;;;;;;;7.80;4.45;;;25.60;77.60;;;;;;5057044;28;20429;-62
2023/06/11 02:05:35;;;;;;;6.80;4.60;;;25.60;78.10;;;;;;5041296;28;20088;-63
2023/06/11 02:08:01;;;;;;;8.38;4.75;;;25.60;77.70;;;;;;5041807;28;20495;-66
2023/06/11 02:10:26;;;;;;;7.45;4.38;;;25.90;77.80;;;;;;5038709;28;20132;-66
2023/06/11 02:12:52;;;;;;;8.05;4.43;;;25.60;77.70;;;;;;5048343;28;20041;-65
2023/06/11 02:15:18;;;;;;;7.70;4.57;;;25.70;78.30;;;;;;5046405;28;20653;-68
2023/06/11 02:17:44;;;;;;;6.78;4.28;;;25.50;77.50;;;;;;5038718;28;20085;-61
2023/06/11 02:20:12;;;;;;;6.97;4.10;;;25.50;77.50;;;;;;5049000;28;20084;-67
2023/06/11 02:22:37;;;;;;;8.15;4.57;;;25.50;77.50;;;;;;5058081;28;20448;-60
2023/06/11 02:25:03;;;;;;;8.05;4.22;;;25.50;77.50;;;;;;5058584;28;20127;-73
2023/06/11 02:27:29;;;;;;;6.93;4.85;;;25.70;77.50;;;;;;5057550;28;20051;-64
2023/06/11 02:29:56;;;;;;;6.85;4.00;;;25.70;77.80;;;;;;5058887;28;20449;-63
2023/06/11 02:32:22;;;;;;;6.25;4.15;;;25.70;77.80;;;;;;5047385;28;20041;-60
2023/06/11 02:34:48;;;;;;;8.27;4.63;;;25.50;77.60;;;;;;5053005;28;20055;-65
2023/06/11 02:37:13;;;;;;;7.78;4.38;;;25.60;77.60;;;;;;5054760;28;20485;-61
2023/06/11 02:39:39;;;;;;;8.02;4.32;;;25.50;77.50;;;;;;5050870;28;20048;-64
2023/06/11 02:42:05;;;;;;;7.20;4.30;;;25.80;77.70;;;;;;5057776;28;20052;-61
2023/06/11 02:44:31;;;;;;;7.20;4.65;;;25.40;77.50;;;;;;5049029;28;20053;-65
2023/06/11 02:46:57;;;;;;;7.53;4.45;;;25.50;77.60;;;;;;5048269;28;20052;-67
2023/06/11 02:49:23;;;;;;;7.80;4.63;;;25.50;77.60;;;;;;5049979;28;20072;-65
2023/06/11 02:51:49;;;;;;;7.28;4.45;;;25.50;77.60;;;;;;5048549;28;20049;-63
2023/06/11 02:54:15;;;;;;;7.15;4.55;;;25.60;77.80;;;;;;5041643;28;20056;-61
2023/06/11 02:56:40;;;;;;;7.22;4.10;;;25.40;77.70;;;;;;5037287;28;20049;-67
2023/06/11 02:59:06;;;;;;;8.52;4.78;;;25.30;77.60;;;;;;5046180;28;20390;-72
2023/06/11 03:01:32;;;;;;;6.88;4.78;;;25.50;77.80;;;;;;5052788;28;20095;-67
2023/06/11 03:03:58;;;;;;;8.93;4.70;;;25.30;77.70;;;;;;5053278;28;20041;-63
2023/06/11 03:06:23;;;;;;;8.23;4.68;;;25.50;77.70;;;;;;5045677;28;20468;-70
2023/06/11 03:08:49;;;;;;;8.25;5.10;;;25.30;77.70;;;;;;5050045;28;20111;-71
2023/06/11 03:11:15;;;;;;;7.53;4.38;;;25.40;77.80;;;;;;5045128;28;20099;-72
2023/06/11 03:13:41;;;;;;;8.10;5.15;;;25.10;77.70;;;;;;5053866;28;20052;-71
2023/06/11 03:16:07;;;;;;;6.32;4.70;;;25.10;77.60;;;;;;5042094;28;20041;-71
2023/06/11 03:18:32;;;;;;;9.35;5.35;;;25.30;77.70;;;;;;5041819;28;20045;-70
2023/06/11 03:20:58;;;;;;;7.22;4.70;;;25.10;77.50;;;;;;5053355;28;20116;-71
2023/06/11 03:23:24;;;;;;;9.50;5.30;;;25.30;77.80;;;;;;5045192;28;20044;-71
2023/06/11 03:25:50;;;;;;;6.95;4.95;;;25.50;77.90;;;;;;5042366;28;20044;-70
2023/06/11 03:28:16;;;;;;;7.93;4.60;;;25.40;77.90;;;;;;5036860;28;20047;-71
2023/06/11 03:30:42;;;;;;;9.20;5.32;;;25.30;78.60;;;;;;5045517;28;20479;-70
2023/06/11 03:33:07;;;;;;;7.53;5.07;;;25.40;77.90;;;;;;5037688;28;20041;-69
2023/06/11 03:35:33;;;;;;;8.13;4.82;;;25.20;77.80;;;;;;5044859;28;20476;-61
2023/06/11 03:37:59;;;;;;;7.85;4.85;;;25.10;77.70;;;;;;5037215;28;20080;-60
2023/06/11 03:40:25;;;;;;;7.55;5.13;;;25.40;77.80;;;;;;5041800;28;20045;-67
2023/06/11 03:42:50;;;;;;;7.40;5.25;;;25.50;77.90;;;;;;5033804;28;20044;-66
2023/06/11 03:45:16;;;;;;;8.20;5.22;;;25.20;77.70;;;;;;5044287;28;20076;-65
2023/06/11 03:47:42;;;;;;;8.95;4.80;;;25.00;77.60;;;;;;5047148;28;20046;-63
2023/06/11 03:50:08;;;;;;;7.70;5.07;;;25.40;78.00;;;;;;5033260;28;20127;-62
2023/06/11 03:52:34;;;;;;;8.65;5.10;;;25.50;81.70;;;;;;5044200;28;20056;-71
2023/06/11 03:54:59;;;;;;;6.82;5.25;;;25.40;78.00;;;;;;5052848;28;20048;-70
2023/06/11 03:57:25;;;;;;;9.13;4.85;;;25.10;77.70;;;;;;5034472;28;20045;-72
2023/06/11 03:59:51;;;;;;;7.10;5.30;;;25.00;77.60;;;;;;5042335;28;20645;-71
2023/06/11 04:02:17;;;;;;;7.78;5.25;;;25.30;77.80;;;;;;5042929;28;20549;-71
2023/06/11 04:04:43;;;;;;;6.45;5.00;;;25.10;77.60;;;;;;5044941;28;20053;-71
2023/06/11 04:07:08;;;;;;;7.28;4.88;;;25.40;78.00;;;;;;5052299;28;20084;-71
2023/06/11 04:09:34;;;;;;;7.55;5.40;;;25.50;78.10;;;;;;5033388;28;20048;-71
2023/06/11 04:12:00;;;;;;;7.55;4.70;;;25.10;77.70;;;;;;5033344;28;20045;-70
2023/06/11 04:14:26;;;;;;;8.00;4.90;;;25.40;77.90;;;;;;5043766;28;20059;-71
2023/06/11 04:16:51;;;;;;;9.27;4.53;;;25.40;77.80;;;;;;5039201;28;20037;-70
2023/06/11 04:19:18;;;;;;;7.45;5.05;;;25.30;77.80;;;;;;5040713;28;20498;-70
2023/06/11 04:21:43;;;;;;;7.65;5.00;;;25.40;77.80;;;;;;5038057;28;20406;-71
2023/06/11 04:24:09;;;;;;;6.78;4.47;;;25.30;77.70;;;;;;5044608;28;20045;-72
2023/06/11 04:26:36;;;;;;;7.93;4.68;;;25.40;77.70;;;;;;5051604;28;20079;-71
2023/06/11 04:29:03;;;;;;;7.22;4.80;;;25.30;80.90;;;;;;5046712;28;20368;-71
2023/06/11 04:31:29;;;;;;;8.15;5.15;;;25.30;77.60;;;;;;5042444;28;20049;-71
2023/06/11 04:34:03;;;;;;;7.15;4.38;;;25.50;77.90;;;;;;5036353;28;20403;-70
2023/06/11 04:36:29;;;;;;;6.65;4.80;;;25.50;81.20;;;;;;5033013;28;20111;-71
2023/06/11 04:38:55;;;;;;;7.22;4.85;;;25.70;77.90;;;;;;5036094;28;20049;-71
2023/06/11 04:41:26;;;;;;;7.03;4.95;;;25.40;77.30;;;;;;5048681;28;20041;-70
2023/06/11 04:43:52;;;;;;;7.88;4.38;;;25.70;78.00;;;;;;5052093;28;20102;-71
2023/06/11 04:46:17;;;;;;;7.15;4.60;;;25.50;77.60;;;;;;5050016;28;20487;-71
2023/06/11 04:48:43;;;;;;;6.70;4.47;;;25.40;77.60;;;;;;5046259;28;20032;-70
2023/06/11 04:51:11;;;;;;;6.97;4.70;;;25.50;77.60;;;;;;5052156;28;20053;-72
2023/06/11 04:53:38;;;;;;;5.97;4.38;;;25.60;77.80;;;;;;5040205;28;20419;-71
2023/06/11 04:56:04;;;;;;;7.95;4.80;;;25.10;77.20;;;;;;5040938;28;20403;-70
2023/06/11 04:58:30;;;;;;;6.70;4.30;;;25.70;77.60;;;;;;5032837;28;20053;-71
2023/06/11 05:00:56;;;;;;;6.53;4.47;;;26.10;77.60;;;;;;5037262;28;20399;-71
2023/06/11 05:03:24;;;;;;;6.97;4.57;;;26.10;77.30;;;;;;5040683;28;20072;-63
2023/06/11 05:05:50;;;;;;;7.68;4.57;;;26.10;77.10;;;;;;5040720;28;20047;-61
2023/06/11 05:08:21;;;;;;;7.60;4.68;;;26.20;76.80;;;;;;5036591;28;20092;-67
2023/06/11 05:10:47;;;;;;;6.28;4.50;;;26.20;76.40;;;;;;5036132;28;20490;-71
2023/06/11 05:13:13;;;;;;;7.15;4.95;;;26.40;76.00;;;;;;5036225;28;20037;-65
2023/06/11 05:15:39;;;;;;;6.50;4.50;;;26.60;76.00;;;;;;5048062;28;20045;-62
2023/06/11 05:18:05;;;;;;;8.48;4.25;;;26.70;75.60;;;;;;5031393;28;20056;-69
2023/06/11 05:20:31;;;;;;;6.57;4.50;;;26.90;75.40;;;;;;5047742;28;20044;-61
2023/06/11 05:23:02;;;;;;;6.03;4.75;;;27.10;75.30;;;;;;5039425;28;20550;-67
2023/06/11 05:25:28;;;;;;;7.22;4.45;;;27.00;74.10;;;;;;5043656;28;20049;-67
2023/06/11 05:28:06;;;;;;;5.47;4.10;;;27.30;74.90;;;;;;5040294;28;20033;-61
2023/06/11 05:30:39;;;;;;;6.63;4.30;;;27.60;74.80;;;;;;5039268;28;20046;-63
2023/06/11 05:33:06;;;;;;;6.82;4.68;;;27.40;73.80;;;;;;5051680;28;20067;-65
2023/06/11 05:35:32;;;;;;;5.70;4.05;;;27.60;74.30;;;;;;5050774;28;20053;-62
2023/06/11 05:37:59;;;;;;;7.72;4.38;;;27.40;74.00;;;;;;5039875;28;20052;-65
2023/06/11 05:40:25;;;;;;;6.55;4.05;;;27.50;74.00;;;;;;5045349;28;20182;-71
2023/06/11 05:42:50;;;;;;;6.53;4.43;;;28.00;73.90;;;;;;5040260;28;20115;-71
2023/06/11 05:45:16;;;;;;;5.97;4.15;;;28.00;73.80;;;;;;5038377;28;20033;-70
2023/06/11 05:47:42;;;;;;;6.07;4.00;;;27.80;73.30;;;;;;5042195;28;20053;-74
2023/06/11 05:50:08;;;;;;;8.05;3.97;;;28.10;73.50;;;;;;5046846;28;20044;-69
2023/06/11 05:52:34;;;;;;;5.85;4.07;;;28.10;73.00;;;;;;5039034;28;20049;-65
2023/06/11 05:55:00;;;;;;;7.32;4.22;;;28.10;73.10;;;;;;5046464;28;20150;-70
2023/06/11 05:57:26;;;;;;;5.88;4.40;;;28.20;73.00;;;;;;5039310;28;20041;-68
2023/06/11 05:59:52;;;;;;;5.88;4.20;;;28.10;72.70;;;;;;5049096;28;20124;-68
2023/06/11 06:02:18;;;;;;;8.25;4.28;;;27.50;72.10;;;;;;5044932;28;20045;-73
2023/06/11 06:04:48;;;;;;;6.00;4.10;;;28.20;72.60;;;;;;5039550;28;20072;-74
2023/06/11 06:07:14;;;;;;;6.55;4.18;;;28.40;73.00;;;;;;5036469;28;20049;-73
2023/06/11 06:09:40;;;;;;;5.95;3.97;;;28.30;72.70;;;;;;5050598;28;20063;-64
2023/06/11 06:12:06;;;;;;;6.15;4.07;;;28.30;72.30;;;;;;5043512;28;20045;-72
2023/06/11 06:14:32;;;;;;;5.53;4.00;;;28.50;72.00;;;;;;5041179;28;20099;-72
2023/06/11 06:16:58;;;;;;;37.78;6.38;;;28.40;72.30;;;;;;5042972;28;20048;-76
2023/06/11 06:19:24;;;;;;;10.40;5.45;;;28.50;72.00;;;;;;5040014;28;20057;-75
2023/06/11 06:21:50;;;;;;;16.90;4.75;;;28.50;71.50;;;;;;5046890;28;20048;-76
2023/06/11 06:24:15;;;;;;;12.93;6.00;;;28.40;71.10;;;;;;5043924;28;20049;-76
2023/06/11 06:26:41;;;;;;;16.30;5.72;;;28.40;71.40;;;;;;5054745;28;20376;-70
2023/06/11 06:29:08;;;;;;;8.82;4.88;;;28.50;71.30;;;;;;5036828;28;20198;-76
2023/06/11 06:31:36;;;;;;;10.77;5.25;;;28.60;71.40;;;;;;5041100;28;20041;-76
2023/06/11 06:34:03;;;;;;;10.27;5.68;;;28.50;71.50;;;;;;5045877;28;20469;-74
2023/06/11 06:36:28;;;;;;;10.15;6.38;;;28.40;71.40;;;;;;5046385;28;20509;-75
2023/06/11 06:38:54;;;;;;;10.40;5.38;;;28.30;70.80;;;;;;5045056;28;20165;-75
2023/06/11 06:41:20;;;;;;;8.88;5.72;;;28.30;71.00;;;;;;5044341;28;20125;-74
2023/06/11 06:43:46;;;;;;;9.18;5.50;;;28.50;71.10;;;;;;5042654;28;20076;-76
2023/06/11 06:46:12;;;;;;;11.05;5.75;;;28.30;70.70;;;;;;5044615;28;20450;-74
2023/06/11 06:48:38;;;;;;;8.32;5.60;;;28.40;71.00;;;;;;5047306;28;20106;-76
2023/06/11 06:51:03;;;;;;;10.05;6.30;;;28.00;70.40;;;;;;5042615;28;20041;-75
2023/06/11 06:53:29;;;;;;;13.15;6.30;;;28.00;69.90;;;;;;5043160;28;20053;-76
2023/06/11 06:55:55;;;;;;;9.35;6.22;;;28.00;69.90;;;;;;5047999;28;20037;-72
2023/06/11 06:58:21;;;;;;;10.43;5.90;;;28.20;69.90;;;;;;5046932;28;20514;-76
2023/06/11 07:00:47;;;;;;;13.10;6.22;;;27.90;69.70;;;;;;5046330;28;20150;-73
2023/06/11 07:03:15;;;;;;;10.15;6.18;;;27.80;69.80;;;;;;5038562;28;20109;-70
2023/06/11 07:05:41;;;;;;;11.95;6.32;;;28.10;68.90;;;;;;5044427;28;20120;-76
2023/06/11 07:08:12;;;;;;;11.45;6.00;;;27.70;69.80;;;;;;5026671;28;20045;-72
2023/06/11 07:10:42;;;;;;;12.30;6.80;;;27.90;68.70;;;;;;5041989;28;20053;-66
2023/06/11 07:13:10;;;;;;;11.15;6.60;;;28.10;69.50;;;;;;5045860;28;20046;-62
2023/06/11 07:15:36;;;;;;;8.95;5.95;;;28.00;69.70;;;;;;5040527;28;20124;-62
2023/06/11 07:18:02;;;;;;;10.63;5.45;;;27.80;69.30;;;;;;5049334;28;20133;-61
2023/06/11 07:20:28;;;;;;;9.90;5.93;;;28.10;69.30;;;;;;5042664;28;20037;-62
2023/06/11 07:22:53;;;;;;;8.85;6.30;;;27.80;69.30;;;;;;5044500;28;20037;-62
2023/06/11 07:25:19;;;;;;;9.80;6.10;;;28.00;69.70;;;;;;5045917;28;20124;-62
2023/06/11 07:27:45;;;;;;;11.57;6.75;;;28.40;70.40;;;;;;5043096;28;20052;-63
2023/06/11 07:30:11;;;;;;;10.35;6.25;;;27.80;69.00;;;;;;5035705;28;20042;-66
2023/06/11 07:32:37;;;;;;;19.98;7.28;;;28.20;69.60;;;;;;5038103;28;20529;-64
2023/06/11 07:35:04;;;;;;;14.95;6.90;;;28.10;69.20;;;;;;5040325;28;20041;-61
2023/06/11 07:37:31;;;;;;;16.30;7.03;;;28.00;69.70;;;;;;5044393;28;20064;-62
2023/06/11 07:39:58;;;;;;;13.43;6.50;;;28.30;70.00;;;;;;5036223;28;20056;-62
2023/06/11 07:42:24;;;;;;;21.20;6.65;;;28.20;69.30;;;;;;5033924;28;20045;-61
2023/06/11 07:44:50;;;;;;;18.88;6.88;;;28.20;69.80;;;;;;5039519;28;20057;-61
2023/06/11 07:47:15;;;;;;;14.07;6.30;;;28.50;69.70;;;;;;5065184;28;20132;-69
2023/06/11 07:49:41;;;;;;;11.70;6.50;;;28.30;69.80;;;;;;5039662;28;20458;-77
2023/06/11 07:52:07;;;;;;;12.55;7.18;;;28.30;69.40;;;;;;5037547;28;20045;-74
2023/06/11 07:54:33;;;;;;;11.93;6.20;;;28.20;69.30;;;;;;5044349;28;20037;-77
2023/06/11 07:56:59;;;;;;;14.75;6.53;;;28.60;69.80;;;;;;5044094;28;20130;-74
2023/06/11 07:59:25;;;;;;;15.55;6.88;;;28.40;69.80;;;;;;5038065;28;20522;-65
2023/06/11 08:01:51;;;;;;;16.48;7.13;;;28.50;69.90;;;;;;5039325;28;20391;-74
2023/06/11 08:04:17;;;;;;;17.27;6.88;;;28.50;69.30;;;;;;5039701;28;20091;-71
2023/06/11 08:06:43;;;;;;;17.75;6.90;;;28.10;69.20;;;;;;5035909;28;20060;-71
2023/06/11 08:09:09;;;;;;;14.07;7.13;;;28.40;69.30;;;;;;5046129;28;20045;-77
2023/06/11 08:11:35;;;;;;;15.18;6.93;;;28.30;68.80;;;;;;5039667;28;20033;-69
2023/06/11 08:14:01;;;;;;;11.18;6.18;;;28.50;69.60;;;;;;5036301;28;20092;-61
2023/06/11 08:16:27;;;;;;;14.75;6.72;;;28.70;69.10;;;;;;5048297;28;20045;-77
2023/06/11 08:18:54;;;;;;;14.57;6.78;;;28.60;69.00;;;;;;5040716;28;20130;-71
2023/06/11 08:21:20;;;;;;;9.75;6.88;;;28.70;69.10;;;;;;5039330;28;20054;-67
2023/06/11 08:23:46;;;;;;;12.70;6.65;;;28.70;68.70;;;;;;5041890;28;20051;-64
2023/06/11 08:26:12;;;;;;;11.48;6.47;;;28.70;68.70;;;;;;5048204;28;20045;-63
2023/06/11 08:28:38;;;;;;;11.48;6.30;;;28.70;68.80;;;;;;5045353;28;20046;-65
2023/06/11 08:31:03;;;;;;;11.57;6.45;;;28.80;68.70;;;;;;5046694;28;20049;-75
2023/06/11 08:33:29;;;;;;;10.55;6.47;;;28.50;68.40;;;;;;5034873;28;20371;-64
2023/06/11 08:35:55;;;;;;;10.48;6.45;;;28.90;68.60;;;;;;5052217;28;20499;-73
2023/06/11 08:38:21;;;;;;;9.30;5.95;;;28.60;68.30;;;;;;5040892;28;20113;-63
2023/06/11 08:40:48;;;;;;;8.68;6.53;;;28.80;72.00;;;;;;5041551;28;20503;-65
2023/06/11 08:43:13;;;;;;;12.18;6.07;;;28.90;68.60;;;;;;5042951;28;20056;-71
2023/06/11 08:45:39;;;;;;;9.05;6.65;;;28.70;68.30;;;;;;5044997;28;20049;-71
2023/06/11 08:48:05;;;;;;;8.57;6.30;;;28.80;68.40;;;;;;5035519;28;20045;-71
2023/06/11 08:50:31;;;;;;;9.77;6.57;;;28.70;68.20;;;;;;5018306;28;20068;-71
2023/06/11 08:53:00;;;;;;;10.00;6.50;;;28.90;68.30;;;;;;5043205;28;20136;-72
2023/06/11 08:55:27;;;;;;;11.45;6.25;;;28.90;68.20;;;;;;5035142;28;20103;-71
2023/06/11 08:57:53;;;;;;;11.90;6.47;;;29.10;68.70;;;;;;5038624;28;20045;-71
2023/06/11 09:00:19;;;;;;;8.63;6.10;;;29.10;68.10;;;;;;5041984;28;20052;-60
2023/06/11 09:02:45;;;;;;;8.98;5.72;;;29.00;68.10;;;;;;5038863;28;20048;-64
2023/06/11 09:05:11;;;;;;;8.52;6.00;;;28.90;68.20;;;;;;5038629;28;20038;-70
2023/06/11 09:07:37;;;;;;;9.25;6.38;;;29.00;68.20;;;;;;5051858;28;20386;-60
2023/06/11 09:10:07;;;;;;;9.57;6.43;;;28.90;68.20;;;;;;5043504;28;20038;-65
2023/06/11 09:12:33;;;;;;;10.75;6.18;;;28.70;66.80;;;;;;5045593;28;20445;-71
2023/06/11 09:14:59;;;;;;;7.88;6.28;;;28.90;68.20;;;;;;5041545;28;20049;-71
2023/06/11 09:17:32;;;;;;;10.70;6.57;;;29.00;68.30;;;;;;5039022;28;20068;-71
2023/06/11 09:19:58;;;;;;;11.75;6.30;;;29.20;69.40;;;;;;5031650;28;20041;-71
2023/06/11 09:22:27;;;;;;;8.35;5.70;;;28.80;68.30;;;;;;5068920;28;20041;-70
2023/06/11 09:24:53;;;;;;;9.77;6.13;;;28.90;68.40;;;;;;5033692;28;20052;-71
2023/06/11 09:27:22;;;;;;;10.73;6.25;;;28.90;68.50;;;;;;5035594;28;20344;-71
2023/06/11 09:29:48;;;;;;;10.50;6.40;;;29.20;68.50;;;;;;5037734;28;20049;-71
2023/06/11 09:32:13;;;;;;;10.35;5.82;;;29.10;68.40;;;;;;5032298;28;20422;-71
2023/06/11 09:34:40;;;;;;;8.98;6.63;;;28.90;69.00;;;;;;5037552;28;20567;-70
2023/06/11 09:37:14;;;;;;;8.55;6.50;;;29.00;68.50;;;;;;5031740;28;20049;-70
2023/06/11 09:39:42;;;;;;;9.30;6.50;;;28.90;68.10;;;;;;5035897;28;20077;-70
2023/06/11 09:42:13;;;;;;;11.63;6.38;;;29.10;68.50;;;;;;5050687;28;20107;-69
2023/06/11 09:44:38;;;;;;;12.88;7.13;;;28.80;68.60;;;;;;5037591;28;20380;-72
2023/06/11 09:47:04;;;;;;;10.90;7.13;;;29.10;68.40;;;;;;5061548;28;20048;-71
2023/06/11 09:49:30;;;;;;;15.48;6.93;;;29.20;68.10;;;;;;5063604;28;20041;-71
2023/06/11 09:51:56;;;;;;;10.98;7.38;;;29.20;68.50;;;;;;5036133;28;20053;-60
2023/06/11 09:54:22;;;;;;;14.50;7.30;;;28.90;68.10;;;;;;5032980;28;20053;-60
2023/06/11 09:56:47;;;;;;;10.70;6.70;;;29.10;68.40;;;;;;5045229;28;20052;-61
2023/06/11 09:59:13;;;;;;;9.93;7.22;;;28.90;68.30;;;;;;5033607;28;20128;-70
2023/06/11 10:01:41;;;;;;;8.95;6.85;;;29.10;68.10;;;;;;5065624;28;20499;-69
2023/06/11 10:04:06;;;;;;;10.43;7.57;;;29.00;68.10;;;;;;5042586;28;20124;-75
2023/06/11 10:06:33;;;;;;;21.88;9.48;;;28.90;67.90;;;;;;5036408;28;20139;-69
2023/06/11 10:09:01;;;;;;;21.02;8.80;;;29.00;68.50;;;;;;5052714;28;20037;-65
2023/06/11 10:11:27;;;;;;;19.27;8.05;;;29.20;68.50;;;;;;5043833;28;20128;-68
2023/06/11 10:14:00;;;;;;;12.07;7.65;;;28.90;68.40;;;;;;5025306;28;20498;-67
2023/06/11 10:16:26;;;;;;;12.38;8.68;;;29.00;68.60;;;;;;5041200;28;20077;-63
2023/06/11 10:19:02;;;;;;;9.77;7.32;;;29.10;68.60;;;;;;5048944;28;20095;-67
2023/06/11 10:21:38;;;;;;;9.75;7.32;;;29.10;68.70;;;;;;5042338;28;20075;-68
2023/06/11 10:24:04;;;;;;;13.45;7.32;;;29.10;68.80;;;;;;5041801;28;20077;-62
2023/06/11 10:26:35;;;;;;;13.55;7.78;;;29.00;68.10;;;;;;5035428;28;20064;-62
2023/06/11 10:29:01;;;;;;;13.65;7.60;;;29.00;69.00;;;;;;5047630;28;20045;-69
2023/06/11 10:31:35;;;;;;;14.15;7.32;;;29.00;68.70;;;;;;5045930;28;20056;-72
2023/06/11 10:34:04;;;;;;;10.98;7.18;;;29.00;69.10;;;;;;5042496;28;20491;-61
2023/06/11 10:36:37;;;;;;;10.35;7.07;;;29.00;69.00;;;;;;5041659;28;20045;-66
2023/06/11 10:39:12;;;;;;;9.40;6.97;;;29.10;69.40;;;;;;5037778;28;20091;-61
2023/06/11 10:41:39;;;;;;;11.85;7.93;;;29.00;69.40;;;;;;5039670;28;20041;-63
2023/06/11 10:44:04;;;;;;;12.23;7.15;;;28.80;68.90;;;;;;5034203;28;20509;-70
2023/06/11 10:46:30;;;;;;;10.23;7.32;;;29.10;69.30;;;;;;5044390;28;20049;-75
2023/06/11 10:48:56;;;;;;;10.45;7.28;;;29.00;69.00;;;;;;5040121;28;20041;-64
2023/06/11 10:51:22;;;;;;;12.13;7.13;;;28.90;68.90;;;;;;5051894;28;20057;-62
2023/06/11 10:53:58;;;;;;;10.52;7.15;;;28.90;68.60;;;;;;5042544;28;20080;-61
2023/06/11 10:56:24;;;;;;;10.43;7.00;;;29.00;68.90;;;;;;5041948;28;20436;-63
2023/06/11 10:58:50;;;;;;;9.15;6.57;;;28.70;68.40;;;;;;5046434;28;20053;-65
2023/06/11 11:01:20;;;;;;;14.13;7.35;;;29.10;68.80;;;;;;5045236;28;20048;-69
2023/06/11 11:03:46;;;;;;;12.45;7.55;;;28.90;68.80;;;;;;5033127;28;20371;-63
2023/06/11 11:06:13;;;;;;;9.73;6.80;;;28.90;68.70;;;;;;5046545;28;20049;-72
2023/06/11 11:08:39;;;;;;;9.60;6.88;;;28.90;68.50;;;;;;5044654;28;20498;-69
2023/06/11 11:11:05;;;;;;;10.68;6.70;;;29.30;68.70;;;;;;5046152;28;20477;-65
2023/06/11 11:13:31;;;;;;;10.80;7.28;;;29.20;68.60;;;;;;5065700;28;20073;-66
2023/06/11 11:16:00;;;;;;;10.32;6.80;;;28.90;68.30;;;;;;5034021;28;20068;-64
2023/06/11 11:18:25;;;;;;;17.30;7.35;;;29.30;68.20;;;;;;5033183;28;20130;-64
2023/06/11 11:20:54;;;;;;;9.52;6.97;;;28.80;68.60;;;;;;5032229;28;20049;-61
2023/06/11 11:23:22;;;;;;;95.70;25.02;;;29.20;69.10;;;;;;5043039;28;20388;-60
2023/06/11 11:25:48;;;;;;;294.60;66.00;;;29.10;69.20;;;;;;5042398;28;20037;-65
2023/06/11 11:28:13;;;;;;;348.63;75.07;;;28.80;69.00;;;;;;5038527;28;20068;-70
2023/06/11 11:30:39;;;;;;;193.55;46.03;;;28.90;69.40;;;;;;5036605;28;20043;-67
2023/06/11 11:33:06;;;;;;;162.85;36.88;;;28.90;69.40;;;;;;5027716;28;20488;-68
2023/06/11 11:35:32;;;;;;;127.78;35.78;;;28.90;69.00;;;;;;5042721;28;20098;-71
2023/06/11 11:37:58;;;;;;;76.05;23.30;;;28.90;68.80;;;;;;5036422;28;20042;-69
2023/06/11 11:40:24;;;;;;;94.65;27.67;;;28.80;68.20;;;;;;5033466;28;20050;-63
2023/06/11 11:42:58;;;;;;;99.57;29.88;;;28.90;68.20;;;;;;5040721;28;20037;-67
2023/06/11 11:45:31;;;;;;;67.40;24.05;;;29.20;68.80;;;;;;5033762;28;20395;-66
2023/06/11 11:47:57;;;;;;;69.32;22.00;;;29.20;68.80;;;;;;5036330;28;20042;-64
2023/06/11 11:50:25;;;;;;;105.78;29.85;;;28.90;68.10;;;;;;5032787;28;20122;-67
2023/06/11 11:53:08;;;;;;;83.50;26.33;;;29.00;68.70;;;;;;5037776;28;20120;-72
2023/06/11 11:55:35;;;;;;;62.08;21.98;;;29.10;69.20;;;;;;5040972;28;22453;-69
2023/06/11 11:58:08;;;;;;;51.92;19.83;;;29.40;69.10;;;;;;5043647;28;20041;-70
2023/06/11 12:00:35;;;;;;;51.38;20.73;;;29.10;68.90;;;;;;5043639;28;20106;-65
2023/06/11 12:03:08;;;;;;;50.63;20.58;;;29.30;68.90;;;;;;5035474;28;20388;-71
2023/06/11 12:05:35;;;;;;;55.95;21.58;;;28.80;68.90;;;;;;5041687;28;20060;-62
2023/06/11 12:08:02;;;;;;;49.90;19.48;;;29.20;68.90;;;;;;5039419;28;20045;-62
2023/06/11 12:10:28;;;;;;;47.33;18.48;;;29.20;69.00;;;;;;5034522;28;20442;-60
2023/06/11 12:12:54;;;;;;;37.65;16.58;;;29.10;68.60;;;;;;5043417;28;20041;-73
2023/06/11 12:15:20;;;;;;;43.22;17.45;;;29.20;68.60;;;;;;5043309;28;20083;-61
2023/06/11 12:17:45;;;;;;;62.90;21.83;;;29.00;68.50;;;;;;5040736;28;20077;-61
2023/06/11 12:20:11;;;;;;;56.13;21.50;;;29.20;69.00;;;;;;5043059;28;20079;-62
2023/06/11 12:22:38;;;;;;;47.63;19.17;;;29.00;69.00;;;;;;5033785;28;20084;-63
2023/06/11 12:25:04;;;;;;;42.78;18.98;;;28.80;69.10;;;;;;5032435;28;20061;-69
2023/06/11 12:27:30;;;;;;;38.05;16.98;;;28.80;69.00;;;;;;5030912;28;20237;-60
2023/06/11 12:29:57;;;;;;;31.33;13.55;;;29.30;69.40;;;;;;5034320;28;20080;-62
2023/06/11 12:32:25;;;;;;;31.85;13.85;;;29.10;69.10;;;;;;5047451;28;20166;-71
2023/06/11 12:34:51;;;;;;;29.88;14.15;;;29.20;69.20;;;;;;5040896;28;20045;-67
2023/06/11 12:37:17;;;;;;;29.75;13.77;;;28.70;68.40;;;;;;5043289;28;20119;-61